sensor_id;sensor_type;location;lat;lon;timestamp;pressure;altitude;pressure_sealevel;temperature;humidity
33414;BME280;60055;41.884;12.534;2023-07-29T00:00:42;100926.69;;;25.97;53.09
33414;BME280;60055;41.884;12.534;2023-07-29T00:03:08;100927.13;;;26.02;52.99
33414;BME280;60055;41.884;12.534;2023-07-29T00:05:34;100929.16;;;25.90;53.74
33414;BME280;60055;41.884;12.534;2023-07-29T00:08:00;100916.69;;;26.07;53.24
33414;BME280;60055;41.884;12.534;2023-07-29T00:10:25;100915.50;;;26.10;53.16
33414;BME280;60055;41.884;12.534;2023-07-29T00:12:51;100923.88;;;26.16;52.58
33414;BME280;60055;41.884;12.534;2023-07-29T00:15:16;100925.03;;;26.23;52.29
33414;BME280;60055;41.884;12.534;2023-07-29T00:17:42;100916.50;;;26.18;52.54
33414;BME280;60055;41.884;12.534;2023-07-29T00:20:07;100911.25;;;26.17;52.37
33414;BME280;60055;41.884;12.534;2023-07-29T00:22:33;100902.22;;;26.16;52.45
33414;BME280;60055;41.884;12.534;2023-07-29T00:24:58;100897.03;;;26.05;53.08
33414;BME280;60055;41.884;12.534;2023-07-29T00:27:24;100909.16;;;26.01;53.21
33414;BME280;60055;41.884;12.534;2023-07-29T00:29:50;100900.75;;;26.04;52.71
33414;BME280;60055;41.884;12.534;2023-07-29T00:32:15;100909.28;;;26.00;53.21
33414;BME280;60055;41.884;12.534;2023-07-29T00:34:41;100912.41;;;26.05;52.84
33414;BME280;60055;41.884;12.534;2023-07-29T00:37:06;100908.44;;;25.99;53.11
33414;BME280;60055;41.884;12.534;2023-07-29T00:39:32;100898.00;;;25.77;53.58
33414;BME280;60055;41.884;12.534;2023-07-29T00:41:58;100904.72;;;25.73;53.57
33414;BME280;60055;41.884;12.534;2023-07-29T00:44:23;100900.03;;;25.65;52.98
33414;BME280;60055;41.884;12.534;2023-07-29T00:46:51;100899.78;;;25.68;53.01
33414;BME280;60055;41.884;12.534;2023-07-29T00:49:18;100903.03;;;25.72;52.39
33414;BME280;60055;41.884;12.534;2023-07-29T00:51:43;100907.53;;;25.34;53.54
33414;BME280;60055;41.884;12.534;2023-07-29T00:54:09;100906.94;;;25.21;53.10
33414;BME280;60055;41.884;12.534;2023-07-29T00:56:34;100899.69;;;25.51;52.64
33414;BME280;60055;41.884;12.534;2023-07-29T00:59:01;100899.41;;;25.34;52.69
33414;BME280;60055;41.884;12.534;2023-07-29T01:01:28;100900.78;;;25.38;52.26
33414;BME280;60055;41.884;12.534;2023-07-29T01:03:54;100895.94;;;25.42;52.07
33414;BME280;60055;41.884;12.534;2023-07-29T01:06:53;100897.13;;;25.30;52.51
33414;BME280;60055;41.884;12.534;2023-07-29T01:09:33;100897.13;;;25.30;52.40
33414;BME280;60055;41.884;12.534;2023-07-29T01:12:21;100893.13;;;25.43;52.18
33414;BME280;60055;41.884;12.534;2023-07-29T01:14:59;100895.13;;;25.32;52.39
33414;BME280;60055;41.884;12.534;2023-07-29T01:17:34;100881.19;;;25.36;52.44
33414;BME280;60055;41.884;12.534;2023-07-29T01:20:02;100895.69;;;25.35;52.27
33414;BME280;60055;41.884;12.534;2023-07-29T01:22:36;100884.59;;;25.29;52.26
33414;BME280;60055;41.884;12.534;2023-07-29T01:25:03;100891.00;;;25.37;52.07
33414;BME280;60055;41.884;12.534;2023-07-29T01:27:29;100882.50;;;25.23;52.39
33414;BME280;60055;41.884;12.534;2023-07-29T01:29:56;100883.19;;;25.25;52.54
33414;BME280;60055;41.884;12.534;2023-07-29T01:32:48;100880.06;;;25.29;52.13
33414;BME280;60055;41.884;12.534;2023-07-29T01:37:52;100877.22;;;25.21;52.39
33414;BME280;60055;41.884;12.534;2023-07-29T01:40:22;100870.69;;;25.24;52.17
33414;BME280;60055;41.884;12.534;2023-07-29T01:42:48;100870.25;;;25.19;52.61
33414;BME280;60055;41.884;12.534;2023-07-29T01:45:14;100875.97;;;25.06;52.61
33414;BME280;60055;41.884;12.534;2023-07-29T01:47:40;100876.09;;;24.76;52.94
33414;BME280;60055;41.884;12.534;2023-07-29T01:50:07;100880.22;;;24.80;53.15
33414;BME280;60055;41.884;12.534;2023-07-29T01:52:33;100873.25;;;24.77;52.93
33414;BME280;60055;41.884;12.534;2023-07-29T01:54:58;100874.09;;;24.78;52.91
33414;BME280;60055;41.884;12.534;2023-07-29T01:57:24;100875.94;;;24.68;52.76
33414;BME280;60055;41.884;12.534;2023-07-29T01:59:49;100869.00;;;24.46;52.97
33414;BME280;60055;41.884;12.534;2023-07-29T02:02:14;100869.84;;;24.47;52.73
33414;BME280;60055;41.884;12.534;2023-07-29T02:04:40;100864.28;;;24.58;52.31
33414;BME280;60055;41.884;12.534;2023-07-29T02:07:05;100863.88;;;24.62;53.13
33414;BME280;60055;41.884;12.534;2023-07-29T02:09:31;100864.72;;;24.72;51.79
33414;BME280;60055;41.884;12.534;2023-07-29T02:11:57;100862.03;;;24.63;51.85
33414;BME280;60055;41.884;12.534;2023-07-29T02:14:23;100859.03;;;24.75;51.49
33414;BME280;60055;41.884;12.534;2023-07-29T02:16:48;100857.50;;;24.73;51.43
33414;BME280;60055;41.884;12.534;2023-07-29T02:19:14;100863.88;;;24.72;51.61
33414;BME280;60055;41.884;12.534;2023-07-29T02:21:40;100849.09;;;24.57;52.03
33414;BME280;60055;41.884;12.534;2023-07-29T02:24:05;100850.66;;;24.50;52.04
33414;BME280;60055;41.884;12.534;2023-07-29T02:26:31;100851.38;;;24.42;52.34
33414;BME280;60055;41.884;12.534;2023-07-29T02:28:56;100852.22;;;24.42;51.92
33414;BME280;60055;41.884;12.534;2023-07-29T02:31:24;100846.25;;;24.29;52.34
33414;BME280;60055;41.884;12.534;2023-07-29T02:33:49;100844.41;;;24.30;51.96
33414;BME280;60055;41.884;12.534;2023-07-29T02:36:15;100840.97;;;24.28;52.44
33414;BME280;60055;41.884;12.534;2023-07-29T02:38:41;100847.66;;;24.33;52.01
33414;BME280;60055;41.884;12.534;2023-07-29T02:41:11;100844.66;;;24.17;52.62
33414;BME280;60055;41.884;12.534;2023-07-29T02:43:42;100839.97;;;24.19;52.39
33414;BME280;60055;41.884;12.534;2023-07-29T02:46:08;100844.81;;;24.25;52.53
33414;BME280;60055;41.884;12.534;2023-07-29T02:48:33;100849.34;;;24.25;52.32
33414;BME280;60055;41.884;12.534;2023-07-29T02:50:59;100853.59;;;24.18;52.24
33414;BME280;60055;41.884;12.534;2023-07-29T02:53:24;100854.38;;;23.99;53.44
33414;BME280;60055;41.884;12.534;2023-07-29T02:55:50;100853.03;;;24.14;52.55
33414;BME280;60055;41.884;12.534;2023-07-29T02:58:16;100858.25;;;24.06;53.08
33414;BME280;60055;41.884;12.534;2023-07-29T03:00:41;100856.34;;;23.97;53.07
33414;BME280;60055;41.884;12.534;2023-07-29T03:03:08;100854.69;;;24.06;52.92
33414;BME280;60055;41.884;12.534;2023-07-29T03:05:34;100855.97;;;24.11;52.90
33414;BME280;60055;41.884;12.534;2023-07-29T03:07:59;100851.69;;;23.99;52.98
33414;BME280;60055;41.884;12.534;2023-07-29T03:10:25;100862.13;;;23.83;52.94
33414;BME280;60055;41.884;12.534;2023-07-29T03:12:50;100866.72;;;23.92;53.20
33414;BME280;60055;41.884;12.534;2023-07-29T03:15:16;100864.72;;;23.94;53.16
33414;BME280;60055;41.884;12.534;2023-07-29T03:17:41;100864.06;;;23.71;53.46
33414;BME280;60055;41.884;12.534;2023-07-29T03:20:07;100865.69;;;23.83;53.30
33414;BME280;60055;41.884;12.534;2023-07-29T03:22:33;100868.38;;;23.83;53.12
33414;BME280;60055;41.884;12.534;2023-07-29T03:24:58;100866.50;;;23.74;53.18
33414;BME280;60055;41.884;12.534;2023-07-29T03:27:24;100868.81;;;23.28;54.79
33414;BME280;60055;41.884;12.534;2023-07-29T03:29:49;100874.94;;;23.39;54.66
33414;BME280;60055;41.884;12.534;2023-07-29T03:32:14;100877.84;;;23.68;53.95
33414;BME280;60055;41.884;12.534;2023-07-29T03:34:40;100869.72;;;23.59;54.46
33414;BME280;60055;41.884;12.534;2023-07-29T03:37:06;100874.72;;;23.73;53.52
33414;BME280;60055;41.884;12.534;2023-07-29T03:39:31;100875.91;;;23.89;53.09
33414;BME280;60055;41.884;12.534;2023-07-29T03:41:57;100879.41;;;23.71;53.96
33414;BME280;60055;41.884;12.534;2023-07-29T03:44:23;100877.88;;;23.78;53.80
33414;BME280;60055;41.884;12.534;2023-07-29T03:46:48;100879.31;;;23.82;53.72
33414;BME280;60055;41.884;12.534;2023-07-29T03:49:14;100873.22;;;23.89;53.63
33414;BME280;60055;41.884;12.534;2023-07-29T03:51:39;100876.50;;;23.93;53.94
33414;BME280;60055;41.884;12.534;2023-07-29T03:54:05;100876.94;;;23.98;53.61
33414;BME280;60055;41.884;12.534;2023-07-29T03:56:31;100881.78;;;24.04;53.37
33414;BME280;60055;41.884;12.534;2023-07-29T03:59:04;100880.03;;;23.93;54.05
33414;BME280;60055;41.884;12.534;2023-07-29T04:01:29;100883.56;;;23.84;54.10
33414;BME280;60055;41.884;12.534;2023-07-29T04:03:55;100888.78;;;23.76;54.07
33414;BME280;60055;41.884;12.534;2023-07-29T04:06:20;100886.59;;;23.61;54.16
33414;BME280;60055;41.884;12.534;2023-07-29T04:08:46;100889.25;;;23.51;54.21
33414;BME280;60055;41.884;12.534;2023-07-29T04:11:11;100895.75;;;23.49;54.24
33414;BME280;60055;41.884;12.534;2023-07-29T04:13:37;100899.41;;;23.68;54.19
33414;BME280;60055;41.884;12.534;2023-07-29T04:16:04;100896.75;;;23.78;54.42
33414;BME280;60055;41.884;12.534;2023-07-29T04:18:29;100889.22;;;23.72;55.33
33414;BME280;60055;41.884;12.534;2023-07-29T04:20:54;100891.53;;;23.86;55.27
33414;BME280;60055;41.884;12.534;2023-07-29T04:23:20;100894.44;;;23.73;55.84
33414;BME280;60055;41.884;12.534;2023-07-29T04:25:45;100894.72;;;23.70;56.57
33414;BME280;60055;41.884;12.534;2023-07-29T04:28:11;100894.13;;;23.67;56.70
33414;BME280;60055;41.884;12.534;2023-07-29T04:30:36;100895.94;;;23.57;57.41
33414;BME280;60055;41.884;12.534;2023-07-29T04:33:02;100899.56;;;23.46;58.14
33414;BME280;60055;41.884;12.534;2023-07-29T04:35:28;100895.19;;;23.45;58.13
33414;BME280;60055;41.884;12.534;2023-07-29T04:37:53;100891.97;;;23.61;57.92
33414;BME280;60055;41.884;12.534;2023-07-29T04:40:18;100900.06;;;23.61;58.13
33414;BME280;60055;41.884;12.534;2023-07-29T04:42:44;100896.91;;;23.56;57.93
33414;BME280;60055;41.884;12.534;2023-07-29T04:45:09;100894.47;;;23.53;58.09
33414;BME280;60055;41.884;12.534;2023-07-29T04:47:35;100903.09;;;23.67;57.58
33414;BME280;60055;41.884;12.534;2023-07-29T04:50:00;100891.44;;;23.67;57.62
33414;BME280;60055;41.884;12.534;2023-07-29T04:52:26;100896.56;;;23.70;57.02
33414;BME280;60055;41.884;12.534;2023-07-29T04:54:51;100891.09;;;23.51;57.27
33414;BME280;60055;41.884;12.534;2023-07-29T04:57:16;100905.06;;;23.65;56.72
33414;BME280;60055;41.884;12.534;2023-07-29T04:59:42;100903.25;;;23.45;57.19
33414;BME280;60055;41.884;12.534;2023-07-29T05:02:07;100898.47;;;23.79;56.16
33414;BME280;60055;41.884;12.534;2023-07-29T05:04:33;100896.22;;;23.93;55.30
33414;BME280;60055;41.884;12.534;2023-07-29T05:06:58;100896.38;;;24.32;54.24
33414;BME280;60055;41.884;12.534;2023-07-29T05:09:23;100907.38;;;24.50;53.70
33414;BME280;60055;41.884;12.534;2023-07-29T05:11:49;100895.31;;;24.63;52.67
33414;BME280;60055;41.884;12.534;2023-07-29T05:14:16;100898.41;;;24.59;53.01
33414;BME280;60055;41.884;12.534;2023-07-29T05:16:41;100902.97;;;24.77;52.32
33414;BME280;60055;41.884;12.534;2023-07-29T05:19:07;100906.69;;;25.05;51.71
33414;BME280;60055;41.884;12.534;2023-07-29T05:21:33;100907.31;;;25.46;51.03
33414;BME280;60055;41.884;12.534;2023-07-29T05:23:58;100908.75;;;25.59;50.32
33414;BME280;60055;41.884;12.534;2023-07-29T05:26:23;100908.66;;;25.22;50.31
33414;BME280;60055;41.884;12.534;2023-07-29T05:28:49;100898.63;;;25.98;49.33
33414;BME280;60055;41.884;12.534;2023-07-29T05:31:14;100902.94;;;25.91;48.28
33414;BME280;60055;41.884;12.534;2023-07-29T05:33:40;100908.47;;;26.26;47.78
33414;BME280;60055;41.884;12.534;2023-07-29T05:36:05;100904.59;;;26.02;47.48
33414;BME280;60055;41.884;12.534;2023-07-29T05:38:31;100899.78;;;26.68;45.87
33414;BME280;60055;41.884;12.534;2023-07-29T05:40:56;100902.84;;;27.00;45.63
33414;BME280;60055;41.884;12.534;2023-07-29T05:43:24;100898.66;;;27.06;45.25
33414;BME280;60055;41.884;12.534;2023-07-29T05:45:50;100908.28;;;27.00;45.46
33414;BME280;60055;41.884;12.534;2023-07-29T05:48:16;100897.56;;;26.99;45.41
33414;BME280;60055;41.884;12.534;2023-07-29T05:50:41;100899.03;;;26.75;45.49
33414;BME280;60055;41.884;12.534;2023-07-29T05:53:07;100903.53;;;27.02;44.82
33414;BME280;60055;41.884;12.534;2023-07-29T05:55:32;100910.59;;;27.38;45.23
33414;BME280;60055;41.884;12.534;2023-07-29T05:57:57;100912.31;;;27.91;43.63
33414;BME280;60055;41.884;12.534;2023-07-29T06:00:23;100911.91;;;27.78;43.65
33414;BME280;60055;41.884;12.534;2023-07-29T06:02:48;100912.13;;;28.26;43.05
33414;BME280;60055;41.884;12.534;2023-07-29T06:05:14;100916.63;;;27.76;43.66
33414;BME280;60055;41.884;12.534;2023-07-29T06:07:39;100914.38;;;27.97;43.90
33414;BME280;60055;41.884;12.534;2023-07-29T06:10:09;100901.91;;;28.70;42.52
33414;BME280;60055;41.884;12.534;2023-07-29T06:12:37;100899.69;;;28.66;42.00
33414;BME280;60055;41.884;12.534;2023-07-29T06:15:03;100914.69;;;28.94;41.82
33414;BME280;60055;41.884;12.534;2023-07-29T06:17:28;100920.13;;;29.34;40.90
33414;BME280;60055;41.884;12.534;2023-07-29T06:19:54;100917.22;;;29.44;40.75
33414;BME280;60055;41.884;12.534;2023-07-29T06:22:19;100915.38;;;29.45;40.09
33414;BME280;60055;41.884;12.534;2023-07-29T06:24:45;100920.41;;;29.72;39.78
33414;BME280;60055;41.884;12.534;2023-07-29T06:27:10;100918.00;;;30.01;39.43
33414;BME280;60055;41.884;12.534;2023-07-29T06:29:36;100915.22;;;29.30;40.40
33414;BME280;60055;41.884;12.534;2023-07-29T06:32:01;100917.91;;;29.22;40.46
33414;BME280;60055;41.884;12.534;2023-07-29T06:34:27;100910.97;;;29.27;40.40
33414;BME280;60055;41.884;12.534;2023-07-29T06:36:52;100921.84;;;29.44;40.33
33414;BME280;60055;41.884;12.534;2023-07-29T06:39:17;100915.69;;;29.58;40.10
33414;BME280;60055;41.884;12.534;2023-07-29T06:41:43;100922.66;;;29.44;40.43
33414;BME280;60055;41.884;12.534;2023-07-29T06:44:08;100922.84;;;28.94;40.93
33414;BME280;60055;41.884;12.534;2023-07-29T06:46:34;100926.25;;;29.53;40.76
33414;BME280;60055;41.884;12.534;2023-07-29T06:48:59;100925.03;;;29.87;40.31
33414;BME280;60055;41.884;12.534;2023-07-29T06:51:24;100924.03;;;30.19;39.38
33414;BME280;60055;41.884;12.534;2023-07-29T06:53:50;100924.13;;;30.34;39.55
33414;BME280;60055;41.884;12.534;2023-07-29T06:56:15;100929.38;;;30.52;39.08
33414;BME280;60055;41.884;12.534;2023-07-29T06:58:44;100929.06;;;30.69;38.82
33414;BME280;60055;41.884;12.534;2023-07-29T07:01:09;100928.47;;;30.82;38.31
33414;BME280;60055;41.884;12.534;2023-07-29T07:03:34;100920.72;;;30.01;38.69
33414;BME280;60055;41.884;12.534;2023-07-29T07:06:00;100929.69;;;30.49;38.54
33414;BME280;60055;41.884;12.534;2023-07-29T07:08:25;100926.41;;;29.19;40.42
33414;BME280;60055;41.884;12.534;2023-07-29T07:10:51;100921.59;;;28.14;42.46
33414;BME280;60055;41.884;12.534;2023-07-29T07:13:16;100925.59;;;29.26;40.91
33414;BME280;60055;41.884;12.534;2023-07-29T07:15:41;100912.34;;;30.03;38.41
33414;BME280;60055;41.884;12.534;2023-07-29T07:18:07;100916.06;;;30.18;38.67
33414;BME280;60055;41.884;12.534;2023-07-29T07:20:32;100915.72;;;29.25;40.17
33414;BME280;60055;41.884;12.534;2023-07-29T07:22:58;100911.63;;;29.54;40.30
33414;BME280;60055;41.884;12.534;2023-07-29T07:25:23;100916.09;;;30.02;39.21
33414;BME280;60055;41.884;12.534;2023-07-29T07:27:48;100911.91;;;29.91;39.23
33414;BME280;60055;41.884;12.534;2023-07-29T07:30:14;100916.94;;;30.10;38.82
33414;BME280;60055;41.884;12.534;2023-07-29T07:32:39;100919.03;;;29.92;39.84
33414;BME280;60055;41.884;12.534;2023-07-29T07:35:05;100915.31;;;30.63;37.94
33414;BME280;60055;41.884;12.534;2023-07-29T07:37:30;100909.31;;;30.90;37.83
33414;BME280;60055;41.884;12.534;2023-07-29T07:39:56;100905.72;;;31.35;36.58
33414;BME280;60055;41.884;12.534;2023-07-29T07:42:21;100916.72;;;31.64;36.14
33414;BME280;60055;41.884;12.534;2023-07-29T07:44:47;100916.25;;;31.75;35.88
33414;BME280;60055;41.884;12.534;2023-07-29T07:47:12;100914.56;;;31.89;35.78
33414;BME280;60055;41.884;12.534;2023-07-29T07:49:38;100910.97;;;31.36;36.35
33414;BME280;60055;41.884;12.534;2023-07-29T07:52:03;100908.59;;;30.42;38.39
33414;BME280;60055;41.884;12.534;2023-07-29T07:54:29;100906.16;;;30.17;38.64
33414;BME280;60055;41.884;12.534;2023-07-29T07:56:54;100910.03;;;30.30;38.83
33414;BME280;60055;41.884;12.534;2023-07-29T07:59:20;100912.66;;;30.55;37.83
33414;BME280;60055;41.884;12.534;2023-07-29T08:01:45;100908.25;;;31.22;36.86
33414;BME280;60055;41.884;12.534;2023-07-29T08:04:12;100900.81;;;31.30;36.81
33414;BME280;60055;41.884;12.534;2023-07-29T08:06:37;100907.97;;;31.69;35.90
33414;BME280;60055;41.884;12.534;2023-07-29T08:09:03;100910.63;;;32.21;35.19
33414;BME280;60055;41.884;12.534;2023-07-29T08:11:28;100906.53;;;31.87;35.37
33414;BME280;60055;41.884;12.534;2023-07-29T08:13:54;100902.69;;;31.82;35.67
33414;BME280;60055;41.884;12.534;2023-07-29T08:16:19;100901.88;;;30.84;38.14
33414;BME280;60055;41.884;12.534;2023-07-29T08:18:44;100905.19;;;30.94;37.54
33414;BME280;60055;41.884;12.534;2023-07-29T08:21:10;100901.06;;;31.21;37.09
33414;BME280;60055;41.884;12.534;2023-07-29T08:23:36;100896.47;;;31.59;36.34
33414;BME280;60055;41.884;12.534;2023-07-29T08:26:05;100896.47;;;32.03;35.27
33414;BME280;60055;41.884;12.534;2023-07-29T08:28:31;100892.41;;;31.17;36.89
33414;BME280;60055;41.884;12.534;2023-07-29T08:30:57;100893.00;;;31.79;36.10
33414;BME280;60055;41.884;12.534;2023-07-29T08:33:24;100895.91;;;31.78;35.84
33414;BME280;60055;41.884;12.534;2023-07-29T08:35:49;100895.63;;;32.17;35.34
33414;BME280;60055;41.884;12.534;2023-07-29T08:38:15;100890.09;;;32.61;34.49
33414;BME280;60055;41.884;12.534;2023-07-29T08:40:45;100888.19;;;33.04;34.26
33414;BME280;60055;41.884;12.534;2023-07-29T08:43:14;100883.06;;;33.15;33.55
33414;BME280;60055;41.884;12.534;2023-07-29T08:45:43;100899.16;;;32.61;33.66
33414;BME280;60055;41.884;12.534;2023-07-29T08:48:10;100895.25;;;31.90;35.70
33414;BME280;60055;41.884;12.534;2023-07-29T08:50:36;100881.13;;;31.20;36.43
33414;BME280;60055;41.884;12.534;2023-07-29T08:53:04;100886.78;;;30.96;36.21
33414;BME280;60055;41.884;12.534;2023-07-29T08:55:31;100884.06;;;31.19;35.58
33414;BME280;60055;41.884;12.534;2023-07-29T08:57:58;100892.06;;;31.35;35.44
33414;BME280;60055;41.884;12.534;2023-07-29T09:00:24;100881.81;;;31.00;36.21
33414;BME280;60055;41.884;12.534;2023-07-29T09:02:50;100891.22;;;30.97;36.32
33414;BME280;60055;41.884;12.534;2023-07-29T09:05:16;100884.13;;;30.88;36.86
33414;BME280;60055;41.884;12.534;2023-07-29T09:07:42;100894.13;;;30.96;36.98
33414;BME280;60055;41.884;12.534;2023-07-29T09:10:13;100888.44;;;31.57;35.47
33414;BME280;60055;41.884;12.534;2023-07-29T09:12:39;100891.94;;;31.95;34.84
33414;BME280;60055;41.884;12.534;2023-07-29T09:15:05;100890.00;;;31.00;36.33
33414;BME280;60055;41.884;12.534;2023-07-29T09:17:33;100881.97;;;31.21;35.94
33414;BME280;60055;41.884;12.534;2023-07-29T09:19:59;100884.38;;;31.38;35.43
33414;BME280;60055;41.884;12.534;2023-07-29T09:22:26;100891.59;;;31.69;34.57
33414;BME280;60055;41.884;12.534;2023-07-29T09:24:52;100888.50;;;31.34;35.91
33414;BME280;60055;41.884;12.534;2023-07-29T09:27:28;100888.94;;;31.61;34.99
33414;BME280;60055;41.884;12.534;2023-07-29T09:29:57;100893.75;;;31.73;34.86
33414;BME280;60055;41.884;12.534;2023-07-29T09:32:24;100887.09;;;31.38;36.10
33414;BME280;60055;41.884;12.534;2023-07-29T09:34:50;100885.94;;;31.18;35.95
33414;BME280;60055;41.884;12.534;2023-07-29T09:37:22;100888.44;;;31.05;36.33
33414;BME280;60055;41.884;12.534;2023-07-29T09:39:49;100886.84;;;31.11;36.18
33414;BME280;60055;41.884;12.534;2023-07-29T09:42:19;100893.59;;;31.37;35.21
33414;BME280;60055;41.884;12.534;2023-07-29T09:44:45;100895.06;;;31.63;34.76
33414;BME280;60055;41.884;12.534;2023-07-29T09:47:22;100903.34;;;31.99;33.36
33414;BME280;60055;41.884;12.534;2023-07-29T09:49:48;100890.09;;;32.10;32.44
33414;BME280;60055;41.884;12.534;2023-07-29T09:52:17;100886.56;;;32.02;31.90
33414;BME280;60055;41.884;12.534;2023-07-29T09:54:44;100889.50;;;31.85;32.03
33414;BME280;60055;41.884;12.534;2023-07-29T09:57:11;100889.88;;;31.53;32.13
33414;BME280;60055;41.884;12.534;2023-07-29T09:59:38;100882.72;;;31.96;32.87
33414;BME280;60055;41.884;12.534;2023-07-29T10:02:04;100882.63;;;32.19;33.09
33414;BME280;60055;41.884;12.534;2023-07-29T10:04:30;100883.44;;;32.34;33.63
33414;BME280;60055;41.884;12.534;2023-07-29T10:06:57;100877.06;;;32.63;32.94
33414;BME280;60055;41.884;12.534;2023-07-29T10:09:24;100879.59;;;32.64;31.47
33414;BME280;60055;41.884;12.534;2023-07-29T10:11:50;100884.44;;;31.97;33.16
33414;BME280;60055;41.884;12.534;2023-07-29T10:14:18;100883.56;;;31.97;34.25
33414;BME280;60055;41.884;12.534;2023-07-29T10:16:46;100885.13;;;32.35;33.55
33414;BME280;60055;41.884;12.534;2023-07-29T10:19:12;100882.69;;;32.25;34.09
33414;BME280;60055;41.884;12.534;2023-07-29T10:21:42;100891.50;;;32.06;34.56
33414;BME280;60055;41.884;12.534;2023-07-29T10:24:15;100887.88;;;31.91;33.85
33414;BME280;60055;41.884;12.534;2023-07-29T10:26:44;100878.13;;;31.53;35.01
33414;BME280;60055;41.884;12.534;2023-07-29T10:29:12;100876.91;;;32.14;34.19
33414;BME280;60055;41.884;12.534;2023-07-29T10:31:40;100874.72;;;32.24;34.50
33414;BME280;60055;41.884;12.534;2023-07-29T10:34:08;100882.75;;;32.47;34.26
33414;BME280;60055;41.884;12.534;2023-07-29T10:36:35;100867.72;;;32.21;34.34
33414;BME280;60055;41.884;12.534;2023-07-29T10:39:01;100863.03;;;32.15;33.96
33414;BME280;60055;41.884;12.534;2023-07-29T10:42:05;100863.63;;;32.11;33.68
33414;BME280;60055;41.884;12.534;2023-07-29T10:47:13;100865.34;;;32.33;32.64
33414;BME280;60055;41.884;12.534;2023-07-29T10:49:43;100865.69;;;32.45;32.96
33414;BME280;60055;41.884;12.534;2023-07-29T10:52:08;100852.28;;;32.50;33.41
33414;BME280;60055;41.884;12.534;2023-07-29T10:54:45;100856.44;;;32.46;33.01
33414;BME280;60055;41.884;12.534;2023-07-29T10:57:15;100853.41;;;32.19;33.27
33414;BME280;60055;41.884;12.534;2023-07-29T10:59:41;100849.56;;;31.99;33.32
33414;BME280;60055;41.884;12.534;2023-07-29T11:02:18;100849.56;;;31.84;33.33
33414;BME280;60055;41.884;12.534;2023-07-29T11:04:50;100843.69;;;32.02;33.17
33414;BME280;60055;41.884;12.534;2023-07-29T11:12:38;100838.16;;;32.46;38.86
33414;BME280;60055;41.884;12.534;2023-07-29T11:17:36;100836.97;;;32.55;39.51
33414;BME280;60055;41.884;12.534;2023-07-29T11:20:02;100840.47;;;32.64;40.04
33414;BME280;60055;41.884;12.534;2023-07-29T11:22:29;100841.63;;;32.55;40.84
33414;BME280;60055;41.884;12.534;2023-07-29T11:24:54;100848.59;;;32.21;41.90
33414;BME280;60055;41.884;12.534;2023-07-29T11:27:20;100839.25;;;32.52;39.87
33414;BME280;60055;41.884;12.534;2023-07-29T11:29:47;100833.81;;;32.73;38.69
33414;BME280;60055;41.884;12.534;2023-07-29T11:32:12;100845.22;;;32.19;38.51
33414;BME280;60055;41.884;12.534;2023-07-29T11:34:38;100842.84;;;32.31;40.07
33414;BME280;60055;41.884;12.534;2023-07-29T11:37:05;100835.31;;;32.18;39.81
33414;BME280;60055;41.884;12.534;2023-07-29T11:39:39;100839.19;;;32.09;40.97
33414;BME280;60055;41.884;12.534;2023-07-29T11:42:05;100831.19;;;32.08;41.01
33414;BME280;60055;41.884;12.534;2023-07-29T11:44:31;100832.97;;;32.15;40.84
33414;BME280;60055;41.884;12.534;2023-07-29T11:46:56;100827.72;;;32.35;40.95
33414;BME280;60055;41.884;12.534;2023-07-29T11:49:21;100821.22;;;32.57;40.07
33414;BME280;60055;41.884;12.534;2023-07-29T11:51:47;100821.91;;;32.59;39.80
33414;BME280;60055;41.884;12.534;2023-07-29T11:54:12;100825.94;;;32.63;39.80
33414;BME280;60055;41.884;12.534;2023-07-29T11:56:38;100831.22;;;32.65;40.11
33414;BME280;60055;41.884;12.534;2023-07-29T11:59:03;100824.75;;;32.72;39.22
33414;BME280;60055;41.884;12.534;2023-07-29T12:01:30;100823.84;;;32.65;40.74
33414;BME280;60055;41.884;12.534;2023-07-29T12:03:56;100833.56;;;32.68;40.19
33414;BME280;60055;41.884;12.534;2023-07-29T12:06:23;100835.31;;;32.75;40.63
33414;BME280;60055;41.884;12.534;2023-07-29T12:08:50;100830.91;;;33.02;39.80
33414;BME280;60055;41.884;12.534;2023-07-29T12:11:16;100836.66;;;32.86;40.22
33414;BME280;60055;41.884;12.534;2023-07-29T12:13:42;100827.53;;;33.00;40.45
33414;BME280;60055;41.884;12.534;2023-07-29T12:16:08;100832.16;;;33.00;40.32
33414;BME280;60055;41.884;12.534;2023-07-29T12:18:33;100834.84;;;32.93;40.59
33414;BME280;60055;41.884;12.534;2023-07-29T12:20:59;100827.13;;;33.03;40.60
33414;BME280;60055;41.884;12.534;2023-07-29T12:23:25;100830.03;;;32.95;40.93
33414;BME280;60055;41.884;12.534;2023-07-29T12:25:58;100827.16;;;32.82;41.16
33414;BME280;60055;41.884;12.534;2023-07-29T12:28:25;100828.97;;;32.96;40.99
33414;BME280;60055;41.884;12.534;2023-07-29T12:30:54;100831.50;;;33.19;40.19
33414;BME280;60055;41.884;12.534;2023-07-29T12:33:36;100821.50;;;33.32;39.99
33414;BME280;60055;41.884;12.534;2023-07-29T12:36:04;100820.81;;;33.03;40.87
33414;BME280;60055;41.884;12.534;2023-07-29T12:38:30;100823.25;;;32.91;41.19
33414;BME280;60055;41.884;12.534;2023-07-29T12:40:55;100826.28;;;32.75;41.45
33414;BME280;60055;41.884;12.534;2023-07-29T12:43:21;100822.34;;;32.84;41.14
33414;BME280;60055;41.884;12.534;2023-07-29T12:45:50;100825.69;;;33.07;40.91
33414;BME280;60055;41.884;12.534;2023-07-29T12:48:15;100821.53;;;33.39;39.77
33414;BME280;60055;41.884;12.534;2023-07-29T12:50:41;100821.66;;;33.03;40.34